Time;durP1;ratioP1;P1;durP2;ratioP2;P2;SDS_P1;SDS_P2;PMS_P1;PMS_P2;Temp;Humidity;BMP_temperature;BMP_pressure;BME280_temperature;BME280_humidity;BME280_pressure;Samples;Min_cycle;Max_cycle;Signal;HPM_P1;HPM_P2
2023/10/28 00:01:11;;;;;;;53.13;24.92;;;;;;;9.07;100.00;99050.25;7395802;19;20367;-67
2023/10/28 00:03:42;;;;;;;53.35;24.70;;;;;;;9.09;100.00;99058.03;7397634;19;20423;-67
2023/10/28 00:06:11;;;;;;;50.08;23.52;;;;;;;9.09;100.00;99058.03;7398422;19;20094;-67
2023/10/28 00:08:40;;;;;;;48.25;23.42;;;;;;;9.10;100.00;99059.72;7395746;19;20015;-68
2023/10/28 00:11:08;;;;;;;52.10;23.83;;;;;;;9.10;100.00;99057.13;7397743;19;20018;-68
2023/10/28 00:13:37;;;;;;;54.25;24.92;;;;;;;9.11;100.00;99053.56;7395016;19;20359;-73
2023/10/28 00:16:06;;;;;;;55.67;26.02;;;;;;;9.11;100.00;99059.66;7398051;19;20381;-68
2023/10/28 00:18:34;;;;;;;55.30;24.50;;;;;;;9.12;100.00;99057.88;7395805;19;20027;-68
2023/10/28 00:21:07;;;;;;;53.03;24.35;;;;;;;9.11;100.00;99061.41;7397058;19;20034;-68
2023/10/28 00:23:35;;;;;;;48.25;22.60;;;;;;;9.11;100.00;99054.44;7397498;19;20022;-68
2023/10/28 00:26:05;;;;;;;55.60;24.02;;;;;;;9.11;100.00;99061.41;7397263;19;20032;-72
2023/10/28 00:28:34;;;;;;;52.63;24.10;;;;;;;9.11;100.00;99064.03;7395336;19;20028;-71
2023/10/28 00:31:03;;;;;;;47.33;21.85;;;;;;;9.11;100.00;99064.03;7397215;19;20036;-68
2023/10/28 00:33:34;;;;;;;47.53;23.30;;;;;;;9.11;100.00;99064.91;7397018;19;20070;-68
2023/10/28 00:36:08;;;;;;;47.15;21.85;;;;;;;9.12;100.00;99063.13;7397475;19;20014;-68
2023/10/28 00:38:37;;;;;;;56.22;23.27;;;;;;;9.13;100.00;99062.19;7394981;19;20358;-68
2023/10/28 00:41:06;;;;;;;48.25;23.08;;;;;;;9.12;100.00;99058.75;7396861;19;20031;-68
2023/10/28 00:43:34;;;;;;;47.20;22.05;;;;;;;9.14;100.00;99058.69;7394490;19;20502;-68
2023/10/28 00:46:03;;;;;;;52.70;21.58;;;;;;;9.16;100.00;99061.22;7396053;19;20006;-68
2023/10/28 00:48:32;;;;;;;49.70;22.15;;;;;;;9.15;100.00;99063.00;7395007;19;20031;-68
2023/10/28 00:51:00;;;;;;;47.58;21.40;;;;;;;9.15;100.00;99055.16;7396124;19;20507;-68
2023/10/28 00:53:33;;;;;;;42.47;20.38;;;;;;;9.16;100.00;99056.81;7394352;19;20007;-68
2023/10/28 00:56:02;;;;;;;45.17;20.75;;;;;;;9.16;100.00;99056.81;7394452;19;20024;-69
2023/10/28 00:58:30;;;;;;;42.80;20.02;;;;;;;9.16;100.00;99062.06;7394519;19;20014;-68
2023/10/28 01:00:59;;;;;;;44.17;19.38;;;;;;;9.17;100.00;99058.53;7394250;19;20010;-68
2023/10/28 01:03:30;;;;;;;42.35;19.90;;;;;;;9.16;100.00;99062.06;7396048;19;20011;-68
2023/10/28 01:05:59;;;;;;;45.75;20.75;;;;;;;9.17;100.00;99057.69;7394785;19;20014;-68
2023/10/28 01:08:28;;;;;;;40.22;19.67;;;;;;;9.17;100.00;99058.53;7394127;19;20372;-68
2023/10/28 01:11:02;;;;;;;40.00;20.70;;;;;;;9.18;100.00;99060.25;7394319;19;20015;-69
2023/10/28 01:13:30;;;;;;;;;;;;;;;9.18;100.00;99057.63;7397136;19;20015;-67
2023/10/28 01:15:59;;;;;;;36.92;17.17;;;;;;;9.18;100.00;99062.03;7394604;19;19951;-67
2023/10/28 01:18:28;;;;;;;40.15;18.90;;;;;;;9.20;100.00;99062.78;7394229;19;20022;-67
2023/10/28 01:20:56;;;;;;;39.97;18.55;;;;;;;9.21;100.00;99060.13;7395553;19;20035;-67
2023/10/28 01:23:27;;;;;;;37.95;18.70;;;;;;;9.21;100.00;99062.75;7393920;19;20023;-68
2023/10/28 01:25:56;;;;;;;36.65;18.58;;;;;;;9.21;100.00;99067.97;7394155;19;20082;-68
2023/10/28 01:28:24;;;;;;;35.22;18.17;;;;;;;9.23;100.00;99067.91;7393590;19;20019;-68
2023/10/28 01:30:52;;;;;;;43.33;17.77;;;;;;;9.24;100.00;99059.97;7393713;19;20006;-69
2023/10/28 01:33:21;;;;;;;37.67;17.65;;;;;;;9.25;100.00;99064.31;7395204;19;20375;-68
2023/10/28 01:35:49;;;;;;;30.63;15.30;;;;;;;9.28;100.00;99071.16;7393479;19;20031;-68
2023/10/28 01:38:18;;;;;;;34.15;16.20;;;;;;;9.27;100.00;99070.31;7393671;19;20028;-68
2023/10/28 01:40:49;;;;;;;31.00;16.10;;;;;;;9.28;100.00;99064.16;7395105;19;20028;-68
2023/10/28 01:43:24;;;;;;;32.10;16.65;;;;;;;9.28;100.00;99069.38;7393655;19;20082;-68
2023/10/28 01:45:52;;;;;;;33.72;15.82;;;;;;;9.30;100.00;99064.09;7392907;19;20078;-68
2023/10/28 01:48:21;;;;;;;25.63;14.30;;;;;;;9.29;100.00;99063.25;7393379;19;20028;-68
2023/10/28 01:50:49;;;;;;;28.90;15.82;;;;;;;9.29;100.00;99068.47;7394874;19;20039;-69
2023/10/28 01:53:17;;;;;;;25.33;13.68;;;;;;;9.31;100.00;99064.94;7394324;19;20015;-68
2023/10/28 01:55:50;;;;;;;27.38;14.25;;;;;;;9.30;100.00;99066.69;7394692;19;20020;-69
2023/10/28 01:58:18;;;;;;;28.42;14.88;;;;;;;9.30;100.00;99061.47;7392865;19;20399;-68
2023/10/28 02:00:47;;;;;;;21.77;13.02;;;;;;;9.31;100.00;99068.41;7394331;19;20023;-68
2023/10/28 02:03:15;;;;;;;20.83;11.75;;;;;;;9.29;100.00;99063.25;7394522;19;20014;-68
2023/10/28 02:05:44;;;;;;;21.83;11.93;;;;;;;9.29;100.00;99063.25;7392966;19;20035;-68
2023/10/28 02:08:12;;;;;;;18.13;10.98;;;;;;;9.29;100.00;99065.84;7392896;19;20018;-68
2023/10/28 02:10:41;;;;;;;20.35;10.65;;;;;;;9.30;100.00;99069.31;7393991;19;20473;-68
2023/10/28 02:13:13;;;;;;;20.83;11.18;;;;;;;9.32;100.00;99071.88;7394202;19;20018;-68
2023/10/28 02:15:42;;;;;;;20.27;10.18;;;;;;;9.32;100.00;99066.66;7392439;19;20036;-68
2023/10/28 02:18:11;;;;;;;19.73;9.38;;;;;;;9.33;100.00;99068.38;7392547;19;20010;-68
2023/10/28 02:20:41;;;;;;;22.48;9.65;;;;;;;9.34;100.00;99073.53;7392025;19;20010;-68
2023/10/28 02:23:10;;;;;;;17.30;8.98;;;;;;;9.35;100.00;99072.63;7400996;19;20027;-68
2023/10/28 02:25:38;;;;;;;16.92;9.38;;;;;;;9.36;100.00;99073.44;7399006;19;20007;-68
2023/10/28 02:28:07;;;;;;;16.20;8.88;;;;;;;9.37;100.00;99075.16;7399002;19;20015;-67
2023/10/28 02:30:44;;;;;;;15.38;8.55;;;;;;;9.38;100.00;99071.63;7401162;19;20015;-68
2023/10/28 02:33:13;;;;;;;13.98;8.45;;;;;;;9.38;100.00;99080.31;7400611;19;20015;-69
2023/10/28 02:35:41;;;;;;;16.17;8.07;;;;;;;9.39;100.00;99076.78;7400984;19;20024;-68
2023/10/28 02:38:10;;;;;;;15.55;8.77;;;;;;;9.40;100.00;99080.25;7398494;19;20469;-68
2023/10/28 02:40:39;;;;;;;12.30;7.53;;;;;;;9.41;100.00;99081.94;7400701;19;20015;-68
2023/10/28 02:43:07;;;;;;;17.63;8.70;;;;;;;9.42;100.00;99088.88;7400237;19;20078;-68
2023/10/28 02:45:36;;;;;;;15.30;8.10;;;;;;;9.42;100.00;99094.13;7398690;19;20019;-68
2023/10/28 02:48:08;;;;;;;13.65;7.78;;;;;;;9.42;100.00;99105.44;7399016;19;20040;-68
2023/10/28 02:50:38;;;;;;;12.73;7.90;;;;;;;9.42;100.00;99096.75;7400890;19;20074;-69
2023/10/28 02:53:06;;;;;;;14.40;7.75;;;;;;;9.43;100.00;99099.28;7400869;19;20017;-67
2023/10/28 02:55:37;;;;;;;12.90;7.38;;;;;;;9.43;100.00;99101.06;7399981;19;20364;-68
2023/10/28 02:58:07;;;;;;;15.65;7.55;;;;;;;9.44;100.00;99105.41;7397359;19;20031;-69
2023/10/28 03:00:36;;;;;;;11.85;7.13;;;;;;;9.43;100.00;99096.66;7397326;19;20007;-68
2023/10/28 03:03:07;;;;;;;12.75;7.10;;;;;;;9.45;100.00;99107.06;7400013;19;20021;-67
2023/10/28 03:05:36;;;;;;;17.08;7.40;;;;;;;9.45;100.00;99107.06;7398280;19;20015;-68
2023/10/28 03:08:04;;;;;;;10.05;6.65;;;;;;;9.46;100.00;99114.00;7397425;19;20022;-68
2023/10/28 03:10:33;;;;;;;12.23;7.00;;;;;;;9.48;100.00;99116.56;7397546;19;20018;-67
2023/10/28 03:13:01;;;;;;;12.90;6.78;;;;;;;9.48;100.00;99114.81;7397003;19;20006;-69
2023/10/28 03:15:36;;;;;;;13.02;7.07;;;;;;;9.48;100.00;99111.31;7397343;19;20084;-69
2023/10/28 03:18:07;;;;;;;11.48;6.88;;;;;;;9.48;100.00;99119.16;7397653;19;20015;-69
2023/10/28 03:20:36;;;;;;;12.23;6.97;;;;;;;9.49;100.00;99115.66;7399005;19;20018;-68
2023/10/28 03:23:04;;;;;;;14.68;6.70;;;;;;;9.47;100.00;99118.34;7399540;19;20014;-68
2023/10/28 03:25:33;;;;;;;12.10;6.95;;;;;;;9.49;100.00;99120.88;7397105;19;20014;-69
2023/10/28 03:28:04;;;;;;;12.60;6.88;;;;;;;9.48;100.00;99121.78;7397400;19;20514;-67
2023/10/28 03:30:33;;;;;;;15.10;6.90;;;;;;;9.45;100.00;99128.88;7399611;19;20025;-69
2023/10/28 03:33:02;;;;;;;12.60;7.47;;;;;;;9.48;100.00;99138.38;7397777;19;20010;-69
2023/10/28 03:35:33;;;;;;;16.42;7.82;;;;;;;9.48;100.00;99133.13;7399064;19;20027;-68
2023/10/28 03:38:01;;;;;;;12.25;7.07;;;;;;;9.48;100.00;99135.75;7397719;19;20070;-69
2023/10/28 03:40:30;;;;;;;11.32;7.53;;;;;;;9.47;100.00;99141.91;7399297;19;20011;-68
2023/10/28 03:42:58;;;;;;;13.95;9.98;;;;;;;9.47;100.00;99143.69;7398776;19;20014;-68
2023/10/28 03:45:28;;;;;;;18.63;11.50;;;;;;;9.49;100.00;99136.59;7397381;19;20375;-68
2023/10/28 03:47:56;;;;;;;15.88;8.77;;;;;;;9.49;100.00;99139.19;7396764;19;20485;-69
2023/10/28 03:50:25;;;;;;;11.40;6.75;;;;;;;9.49;100.00;99145.31;7398238;19;20074;-69
2023/10/28 03:52:57;;;;;;;16.27;6.82;;;;;;;9.49;100.00;99145.31;7398106;19;20011;-68
2023/10/28 03:55:25;;;;;;;14.98;7.25;;;;;;;9.50;100.00;99149.59;7395982;19;20363;-68
2023/10/28 03:57:55;;;;;;;12.32;7.50;;;;;;;9.50;100.00;99152.22;7396233;19;20014;-68
2023/10/28 04:00:24;;;;;;;12.73;6.55;;;;;;;9.50;100.00;99152.22;7397875;19;20482;-69
2023/10/28 04:02:53;;;;;;;16.52;7.25;;;;;;;9.50;100.00;99144.38;7398204;19;20030;-68
2023/10/28 04:05:22;;;;;;;12.07;6.68;;;;;;;9.50;100.00;99157.47;7397689;19;20023;-68
2023/10/28 04:07:50;;;;;;;14.65;7.35;;;;;;;9.49;100.00;99160.16;7397029;19;20074;-68
2023/10/28 04:10:22;;;;;;;13.27;6.85;;;;;;;9.49;100.00;99165.38;7398379;19;20006;-68
2023/10/28 04:12:50;;;;;;;12.10;6.65;;;;;;;9.50;100.00;99162.69;7397340;19;20011;-68
2023/10/28 04:15:19;;;;;;;17.20;10.20;;;;;;;9.50;100.00;99162.69;7395508;19;20040;-68
2023/10/28 04:17:47;;;;;;;19.98;10.40;;;;;;;9.51;100.00;99168.81;7396472;19;20082;-68
2023/10/28 04:20:16;;;;;;;14.90;7.07;;;;;;;9.51;100.00;99166.19;7398284;19;20018;-68
2023/10/28 04:22:44;;;;;;;18.48;7.80;;;;;;;9.51;100.00;99164.41;7395545;19;20038;-68
2023/10/28 04:25:14;;;;;;;11.63;7.05;;;;;;;9.54;100.00;99166.03;7396932;19;20032;-68
2023/10/28 04:27:45;;;;;;;14.60;7.95;;;;;;;9.54;100.00;99171.28;7396256;19;20014;-68
2023/10/28 04:30:14;;;;;;;15.30;7.72;;;;;;;9.54;100.00;99166.91;7396977;19;20036;-68
2023/10/28 04:32:43;;;;;;;15.80;8.82;;;;;;;9.55;100.00;99168.59;7395026;19;20007;-69
2023/10/28 04:35:12;;;;;;;16.05;8.60;;;;;;;9.55;100.00;99171.19;7396740;19;20414;-68
2023/10/28 04:37:41;;;;;;;16.05;8.38;;;;;;;9.54;100.00;99172.13;7395970;19;20025;-68
2023/10/28 04:40:11;;;;;;;16.40;9.45;;;;;;;9.54;100.00;99177.38;7396453;19;20518;-68
2023/10/28 04:42:39;;;;;;;15.15;9.02;;;;;;;9.54;100.00;99166.91;7396704;19;20015;-67
2023/10/28 04:45:11;;;;;;;11.82;7.45;;;;;;;9.53;100.00;99167.81;7393598;19;20370;-68
2023/10/28 04:47:39;;;;;;;16.05;8.45;;;;;;;9.52;100.00;99163.50;7394744;19;20436;-68
2023/10/28 04:50:08;;;;;;;13.77;7.60;;;;;;;9.50;100.00;99165.31;7394739;19;20062;-69
2023/10/28 04:52:37;;;;;;;15.55;7.60;;;;;;;9.53;100.00;99170.44;7396314;19;20018;-68
2023/10/28 04:55:06;;;;;;;12.43;7.80;;;;;;;9.55;100.00;99178.22;7395942;19;20074;-68
2023/10/28 04:57:34;;;;;;;14.43;8.25;;;;;;;9.54;100.00;99177.38;7395370;19;20074;-68
2023/10/28 05:00:03;;;;;;;13.75;8.60;;;;;;;9.54;100.00;99176.50;7394160;19;20424;-68
2023/10/28 05:02:34;;;;;;;14.88;9.20;;;;;;;9.52;100.00;99178.34;7395975;19;20014;-68
2023/10/28 05:05:03;;;;;;;15.32;9.15;;;;;;;9.51;100.00;99174.88;7395412;19;20532;-68
2023/10/28 05:07:31;;;;;;;17.88;9.52;;;;;;;9.49;100.00;99184.56;7394608;19;20019;-67
2023/10/28 05:10:00;;;;;;;26.02;9.30;;;;;;;9.48;100.00;99193.34;7394553;19;20078;-68
2023/10/28 05:12:28;;;;;;;14.35;9.45;;;;;;;9.46;100.00;99197.78;7393951;19;20078;-67
2023/10/28 05:14:58;;;;;;;17.80;8.95;;;;;;;9.44;100.00;99202.25;7393872;19;20514;-67
2023/10/28 05:17:27;;;;;;;13.55;8.88;;;;;;;9.44;100.00;99207.47;7395617;19;20086;-68
2023/10/28 05:19:58;;;;;;;12.63;8.15;;;;;;;9.42;100.00;99217.16;7395647;19;20074;-68
2023/10/28 05:22:27;;;;;;;14.20;8.00;;;;;;;9.42;100.00;99214.53;7395140;19;20078;-67
2023/10/28 05:24:55;;;;;;;17.13;7.60;;;;;;;9.40;100.00;99221.59;7395059;19;20074;-67
2023/10/28 05:27:24;;;;;;;13.02;7.35;;;;;;;9.40;100.00;99216.34;7393476;19;20019;-67
2023/10/28 05:29:52;;;;;;;14.45;7.18;;;;;;;9.39;100.00;99219.88;7395002;19;20070;-66
2023/10/28 05:32:21;;;;;;;12.32;7.85;;;;;;;9.39;100.00;99227.72;7394808;19;20078;-67
2023/10/28 05:34:49;;;;;;;14.63;7.93;;;;;;;9.37;100.00;99233.03;7392927;19;20453;-67
2023/10/28 05:37:21;;;;;;;12.45;7.63;;;;;;;9.37;100.00;99232.19;7394640;19;20100;-67
2023/10/28 05:39:50;;;;;;;11.80;7.40;;;;;;;9.36;100.00;99233.09;7395220;19;20361;-68
2023/10/28 05:42:19;;;;;;;18.10;8.13;;;;;;;9.35;100.00;99241.88;7394996;19;20021;-68
2023/10/28 05:44:47;;;;;;;14.15;7.63;;;;;;;9.34;100.00;99243.66;7393014;19;20019;-68
2023/10/28 05:47:16;;;;;;;14.00;7.68;;;;;;;9.32;100.00;99242.00;7392790;19;20070;-69
2023/10/28 05:49:44;;;;;;;15.23;8.35;;;;;;;9.29;100.00;99254.28;7394634;19;20021;-68
2023/10/28 05:52:18;;;;;;;11.95;8.32;;;;;;;9.27;100.00;99252.66;7394425;19;20396;-69
2023/10/28 05:54:49;;;;;;;14.60;7.72;;;;;;;9.25;100.00;99255.34;7393389;19;20078;-69
2023/10/28 05:57:17;;;;;;;15.48;8.68;;;;;;;9.23;100.00;99257.16;7399156;19;20431;-69
2023/10/28 05:59:46;;;;;;;16.10;8.90;;;;;;;9.20;100.00;99254.66;7402179;19;20091;-68
2023/10/28 06:02:15;;;;;;;15.10;8.52;;;;;;;9.16;100.00;99260.06;7401886;19;20070;-68
2023/10/28 06:04:44;;;;;;;14.32;8.77;;;;;;;9.13;100.00;99263.66;7401637;19;20017;-67
2023/10/28 06:07:12;;;;;;;12.40;8.93;;;;;;;9.09;100.00;99265.56;7398851;19;20070;-68
2023/10/28 06:09:41;;;;;;;15.95;9.02;;;;;;;9.07;100.00;99269.13;7402036;19;20101;-68
2023/10/28 06:12:13;;;;;;;18.25;8.65;;;;;;;9.06;100.00;99270.03;7401733;19;20086;-69
2023/10/28 06:14:49;;;;;;;13.50;8.88;;;;;;;9.04;100.00;99271.88;7399765;19;20378;-68
2023/10/28 06:17:20;;;;;;;15.80;9.18;;;;;;;9.03;100.00;99272.78;7399153;19;20010;-68
2023/10/28 06:19:48;;;;;;;22.33;10.07;;;;;;;9.02;100.00;99278.94;7400966;19;20014;-68
2023/10/28 06:22:17;;;;;;;18.95;10.43;;;;;;;9.02;100.00;99287.63;7401156;19;20066;-68
2023/10/28 06:24:45;;;;;;;15.60;10.27;;;;;;;9.02;100.00;99290.25;7401167;19;20082;-68
2023/10/28 06:27:16;;;;;;;21.83;11.57;;;;;;;9.04;100.00;99292.81;7398835;19;20069;-67
2023/10/28 06:29:45;;;;;;;18.23;10.25;;;;;;;9.05;100.00;99302.34;7400716;19;20483;-67
2023/10/28 06:32:13;;;;;;;19.63;10.35;;;;;;;9.07;100.00;99303.16;7401089;19;20480;-67
2023/10/28 06:34:42;;;;;;;19.17;10.82;;;;;;;9.08;100.00;99307.47;7400878;19;20070;-68
2023/10/28 06:37:11;;;;;;;19.80;10.45;;;;;;;9.11;100.00;99313.44;7397653;19;20032;-68
2023/10/28 06:39:39;;;;;;;15.20;10.90;;;;;;;9.14;100.00;99315.09;7398186;19;20032;-67
2023/10/28 06:42:08;;;;;;;21.50;9.95;;;;;;;9.17;100.00;99308.88;7400691;19;20086;-69
2023/10/28 06:44:39;;;;;;;17.27;10.63;;;;;;;9.20;100.00;99317.47;7400314;19;20436;-68
2023/10/28 06:47:08;;;;;;;19.60;8.88;;;;;;;9.21;100.00;99316.56;7399026;19;20018;-68
2023/10/28 06:49:36;;;;;;;18.20;8.23;;;;;;;9.22;100.00;99318.25;7397708;19;20082;-68
2023/10/28 06:52:05;;;;;;;12.73;8.60;;;;;;;9.23;100.00;99317.34;7399774;19;20086;-68
2023/10/28 06:54:34;;;;;;;15.75;8.02;;;;;;;9.23;100.00;99321.75;7399911;19;20477;-68
2023/10/28 06:57:02;;;;;;;15.52;7.97;;;;;;;9.22;100.00;99333.94;7399504;19;20031;-69
2023/10/28 06:59:32;;;;;;;17.60;7.25;;;;;;;9.21;100.00;99336.63;7397511;19;20090;-68
2023/10/28 07:02:03;;;;;;;16.65;7.90;;;;;;;9.18;100.00;99336.75;7399926;19;20014;-67
2023/10/28 07:04:31;;;;;;;16.75;9.20;;;;;;;9.17;100.00;99335.06;7401032;19;20074;-68
2023/10/28 07:07:00;;;;;;;15.02;7.65;;;;;;;9.17;100.00;99340.28;7396693;19;20493;-68
2023/10/28 07:09:29;;;;;;;14.80;7.97;;;;;;;9.14;100.00;99346.50;7397954;19;20014;-68
2023/10/28 07:11:57;;;;;;;17.50;8.80;;;;;;;9.12;100.00;99354.41;7396971;19;20074;-68
2023/10/28 07:14:26;;;;;;;15.02;8.18;;;;;;;9.10;100.00;99355.38;7399028;19;20028;-68
2023/10/28 07:16:54;;;;;;;17.48;7.80;;;;;;;9.09;100.00;99359.75;7399010;19;20435;-68
2023/10/28 07:19:25;;;;;;;15.48;7.88;;;;;;;9.07;100.00;99358.97;7396884;19;20062;-68
2023/10/28 07:21:54;;;;;;;16.55;8.15;;;;;;;9.05;100.00;99371.25;7398935;19;20018;-67
2023/10/28 07:24:22;;;;;;;10.48;7.60;;;;;;;9.04;100.00;99364.28;7398873;19;20070;-68
2023/10/28 07:26:51;;;;;;;11.27;7.18;;;;;;;9.04;100.00;99366.91;7396450;19;20089;-68
2023/10/28 07:29:19;;;;;;;16.52;7.93;;;;;;;9.05;100.00;99372.97;7399102;19;20022;-68
2023/10/28 07:31:48;;;;;;;38.25;19.83;;;;;;;9.04;100.00;99371.31;7398879;19;20354;-67
2023/10/28 07:34:17;;;;;;;39.63;23.70;;;;;;;9.04;100.00;99366.91;7399490;19;20011;-67
2023/10/28 07:36:49;;;;;;;31.58;21.42;;;;;;;9.05;100.00;99370.38;7398912;19;20037;-67
2023/10/28 07:39:18;;;;;;;19.20;10.38;;;;;;;9.05;100.00;99373.84;7398672;19;20017;-67
2023/10/28 07:41:47;;;;;;;16.25;9.68;;;;;;;9.06;100.00;99372.94;7398585;19;20023;-68
2023/10/28 07:44:15;;;;;;;15.45;9.10;;;;;;;9.09;100.00;99379.84;7398093;19;20078;-69
2023/10/28 07:46:44;;;;;;;19.17;9.65;;;;;;;9.09;100.00;99380.66;7395280;19;20486;-68
2023/10/28 07:49:13;;;;;;;17.02;9.05;;;;;;;9.11;100.00;99378.00;7397448;19;20432;-68
2023/10/28 07:51:41;;;;;;;17.42;8.43;;;;;;;9.10;100.00;99386.78;7397860;19;20013;-68
2023/10/28 07:54:13;;;;;;;16.67;9.40;;;;;;;9.09;100.00;99392.91;7395932;19;20077;-68
2023/10/28 07:56:42;;;;;;;15.95;9.27;;;;;;;9.09;100.00;99408.63;7398214;19;20031;-69
2023/10/28 07:59:11;;;;;;;13.82;9.23;;;;;;;9.09;100.00;99406.00;7395258;19;20507;-68
2023/10/28 08:01:39;;;;;;;19.10;12.43;;;;;;;9.09;100.00;99408.63;7397698;19;20015;-68
2023/10/28 08:04:08;;;;;;;21.00;13.05;;;;;;;9.11;100.00;99412.88;7397378;19;20018;-68
2023/10/28 08:06:37;;;;;;;20.35;12.07;;;;;;;9.11;100.00;99415.50;7396837;19;20174;-67
2023/10/28 08:09:08;;;;;;;20.58;11.32;;;;;;;9.12;100.00;99418.94;7394613;19;20010;-68
2023/10/28 08:11:40;;;;;;;16.67;10.93;;;;;;;9.16;100.00;99420.53;7397545;19;20036;-68
2023/10/28 08:14:08;;;;;;;21.10;10.90;;;;;;;9.18;100.00;99429.19;7397727;19;20021;-68
2023/10/28 08:16:37;;;;;;;22.92;10.75;;;;;;;9.22;100.00;99429.94;7395167;19;20093;-68
2023/10/28 08:19:08;;;;;;;18.85;11.48;;;;;;;9.26;100.00;99431.53;7396976;19;20014;-68
2023/10/28 08:21:36;;;;;;;18.83;11.43;;;;;;;9.32;100.00;99426.06;7397410;19;20010;-68
2023/10/28 08:24:07;;;;;;;18.00;11.10;;;;;;;9.37;100.00;99431.97;7396943;19;20090;-67
2023/10/28 08:26:38;;;;;;;17.40;10.23;;;;;;;9.41;100.00;99432.72;7396772;19;20079;-67
2023/10/28 08:29:07;;;;;;;19.40;9.40;;;;;;;9.46;100.00;99430.78;7396996;19;20428;-67
2023/10/28 08:31:36;;;;;;;18.88;9.77;;;;;;;9.49;100.00;99440.28;7396897;19;20077;-68
2023/10/28 08:34:04;;;;;;;20.30;9.75;;;;;;;9.51;100.00;99438.47;7396514;19;20077;-68
2023/10/28 08:36:33;;;;;;;19.65;10.20;;;;;;;9.54;100.00;99447.06;7396522;19;20090;-68
2023/10/28 08:39:01;;;;;;;19.67;10.35;;;;;;;9.59;100.00;99446.84;7395525;19;20074;-68
2023/10/28 08:41:30;;;;;;;18.98;9.75;;;;;;;9.63;100.00;99451.09;7395963;19;20074;-68
2023/10/28 08:44:04;;;;;;;17.63;9.38;;;;;;;9.67;100.00;99451.78;7396427;19;20036;-67
2023/10/28 08:46:34;;;;;;;18.80;9.80;;;;;;;9.73;100.00;99449.81;7395808;19;20541;-67
2023/10/28 08:49:04;;;;;;;14.88;9.80;;;;;;;9.81;100.00;99454.75;7396162;19;20007;-68
2023/10/28 08:51:33;;;;;;;17.23;10.00;;;;;;;9.88;100.00;99466.69;7395591;19;20007;-68
2023/10/28 08:54:04;;;;;;;17.63;9.30;;;;;;;9.97;100.00;99462.88;7395681;19;20376;-68
2023/10/28 08:56:37;;;;;;;22.65;11.25;;;;;;;10.04;100.00;99464.31;7394325;19;20018;-68
2023/10/28 08:59:09;;;;;;;20.63;9.82;;;;;;;10.11;100.00;99470.19;7394438;19;20011;-68
2023/10/28 09:01:39;;;;;;;16.67;9.57;;;;;;;10.18;100.00;99471.59;7395812;19;20010;-68
2023/10/28 09:04:07;;;;;;;15.60;9.63;;;;;;;10.25;100.00;99473.06;7395820;19;20062;-68
2023/10/28 09:06:35;;;;;;;15.63;10.40;;;;;;;10.32;100.00;99472.81;7394983;19;20018;-68
2023/10/28 09:09:06;;;;;;;16.40;10.02;;;;;;;10.37;100.00;99474.38;7395432;19;20548;-67
2023/10/28 09:11:34;;;;;;;20.05;9.70;;;;;;;10.42;100.00;99480.25;7396251;19;20022;-68
2023/10/28 09:14:03;;;;;;;17.83;9.88;;;;;;;10.47;100.00;99484.50;7395634;19;20070;-67
2023/10/28 09:16:42;;;;;;;15.07;8.88;;;;;;;10.53;100.00;99489.47;7394804;19;20090;-69
2023/10/28 09:19:21;;;;;;;12.50;8.45;;;;;;;10.59;100.00;99494.47;7394314;19;20006;-67
2023/10/28 09:21:50;;;;;;;16.08;8.27;;;;;;;10.63;100.00;99495.19;7395865;19;20041;-67
2023/10/28 09:24:21;;;;;;;16.50;8.48;;;;;;;10.66;100.00;99497.69;7394893;19;20062;-67
2023/10/28 09:26:50;;;;;;;12.82;7.22;;;;;;;10.67;100.00;99504.66;7394115;19;20030;-67
2023/10/28 09:29:28;;;;;;;9.98;6.78;;;;;;;10.70;100.00;99507.13;7392219;19;20028;-68
2023/10/28 09:32:08;;;;;;;12.38;7.10;;;;;;;10.71;100.00;99508.84;7392435;19;20373;-67
2023/10/28 09:34:38;;;;;;;11.90;7.07;;;;;;;10.74;100.00;99503.44;7393361;19;20010;-67
2023/10/28 09:37:07;;;;;;;11.10;6.30;;;;;;;10.76;100.00;99504.25;7393813;19;20011;-66
2023/10/28 09:39:36;;;;;;;10.50;6.47;;;;;;;10.79;100.00;99509.34;7394964;19;20449;-65
2023/10/28 09:42:06;;;;;;;14.05;7.45;;;;;;;10.82;100.00;99506.63;7394486;19;20021;-66
2023/10/28 09:44:35;;;;;;;17.02;6.72;;;;;;;10.85;100.00;99511.72;7393886;19;20074;-67
2023/10/28 09:47:14;;;;;;;12.95;7.65;;;;;;;10.88;100.00;99511.59;7392001;19;20010;-67
2023/10/28 09:49:49;;;;;;;16.60;10.30;;;;;;;10.94;100.00;99512.25;7393792;19;20018;-67
2023/10/28 09:52:20;;;;;;;14.02;7.85;;;;;;;11.00;100.00;99517.25;7394594;19;20070;-67
2023/10/28 09:54:54;;;;;;;11.10;6.43;;;;;;;11.04;100.00;99518.81;7393997;19;20074;-67
2023/10/28 09:57:22;;;;;;;15.90;6.47;;;;;;;11.10;100.00;99518.53;7392342;19;20014;-66
2023/10/28 09:59:53;;;;;;;13.07;6.45;;;;;;;11.15;100.00;99513.09;7393231;19;20556;-67
2023/10/28 10:02:33;;;;;;;9.35;5.70;;;;;;;11.17;100.00;99519.13;7394307;19;20104;-67
2023/10/28 10:05:07;;;;;;;12.23;6.30;;;;;;;11.22;100.00;99523.25;7393550;19;20078;-67
2023/10/28 10:07:36;;;;;;;10.95;6.22;;;;;;;11.24;100.00;99518.78;7391331;19;20073;-67
2023/10/28 10:10:13;;;;;;;9.50;5.93;;;;;;;11.26;100.00;99521.34;7391129;19;20431;-67
2023/10/28 10:12:41;;;;;;;9.95;5.40;;;;;;;11.26;100.00;99521.34;7394040;19;20457;-66
2023/10/28 10:15:13;;;;;;;10.43;5.07;;;;;;;11.28;100.00;99526.53;7392674;19;20082;-66
2023/10/28 10:17:50;;;;;;;11.02;5.10;;;;;;;11.27;100.00;99530.06;7392436;19;20037;-67
2023/10/28 10:20:27;;;;;;;13.55;6.10;;;;;;;11.26;100.00;99526.59;7394144;19;20101;-67
2023/10/28 10:23:01;;;;;;;8.75;4.63;;;;;;;11.28;100.00;99521.28;7393991;19;20011;-67
2023/10/28 10:25:35;;;;;;;10.73;5.05;;;;;;;11.29;100.00;99525.63;7391332;19;20070;-66
2023/10/28 10:28:15;;;;;;;12.25;5.00;;;;;;;11.30;100.00;99522.91;7391839;19;20357;-67
2023/10/28 10:30:44;;;;;;;7.55;4.13;;;;;;;11.34;100.00;99526.25;7393312;19;20011;-66
2023/10/28 10:33:26;;;;;;;6.75;4.68;;;;;;;11.36;100.00;99524.41;7390813;19;20014;-66
2023/10/28 10:35:54;;;;;;;6.63;3.88;;;;;;;11.39;100.00;99529.53;7393307;19;20090;-66
2023/10/28 10:38:30;;;;;;;8.98;4.40;;;;;;;11.42;100.00;99524.13;7390987;19;20011;-66
2023/10/28 10:41:00;;;;;;;9.02;4.28;;;;;;;11.46;100.00;99525.72;7392592;19;20033;-67
2023/10/28 10:43:32;;;;;;;9.90;4.35;;;;;;;11.49;100.00;99528.19;7394906;19;20347;-67
2023/10/28 10:46:00;;;;;;;10.77;6.35;;;;;;;11.55;100.00;99521.81;7399823;19;20499;-67
2023/10/28 10:48:33;;;;;;;13.63;6.43;;;;;;;11.59;100.00;99526.03;7398304;19;20074;-66
2023/10/28 10:51:03;;;;;;;7.25;4.97;;;;;;;11.65;100.00;99532.75;7400990;19;20419;-67
2023/10/28 10:53:31;;;;;;;11.02;5.00;;;;;;;11.70;100.00;99534.25;7397038;19;20018;-67
2023/10/28 10:56:00;;;;;;;7.78;4.50;;;;;;;11.75;100.00;99531.41;7399185;19;20087;-67
2023/10/28 10:58:28;;;;;;;10.40;5.53;;;;;;;11.82;100.00;99535.47;7396373;19;20095;-67
2023/10/28 11:00:56;;;;;;;8.55;4.68;;;;;;;11.87;100.00;99530.84;7396936;19;20066;-66
2023/10/28 11:03:27;;;;;;;10.45;4.40;;;;;;;11.93;100.00;99526.22;7396966;19;20010;-68
2023/10/28 11:05:59;;;;;;;4.95;4.38;;;;;;;11.96;100.00;99524.34;7399208;19;20014;-67
2023/10/28 11:08:28;;;;;;;7.00;4.55;;;;;;;12.02;100.00;99536.34;7396397;19;20018;-66
2023/10/28 11:10:57;;;;;;;6.28;4.00;;;;;;;12.05;100.00;99533.56;7396383;19;20006;-66
2023/10/28 11:13:25;;;;;;;7.10;4.15;;;;;;;12.08;100.00;99532.56;7398337;19;20481;-67
2023/10/28 11:15:54;;;;;;;7.05;4.47;;;;;;;12.10;100.00;99539.47;7397817;19;20069;-67
2023/10/28 11:18:22;;;;;;;5.47;4.72;;;;;;;12.11;100.00;99542.97;7396633;19;20011;-67
2023/10/28 11:20:51;;;;;;;5.63;4.20;;;;;;;12.12;100.00;99539.38;7396430;19;20373;-67
2023/10/28 11:23:23;;;;;;;6.57;4.38;;;;;;;12.11;100.00;99533.28;7396015;19;20018;-67
2023/10/28 11:25:51;;;;;;;5.60;3.97;;;;;;;12.11;100.00;99535.91;7395801;19;20074;-67
2023/10/28 11:28:19;;;;;;;6.35;4.20;;;;;;;12.11;100.00;99533.28;7395434;19;20018;-66
2023/10/28 11:30:51;;;;;;;6.72;4.22;;;;;;;12.14;100.00;99529.66;7397802;19;20420;-68
2023/10/28 11:33:20;;;;;;;8.65;4.50;;;;;;;12.18;100.00;99539.09;7397787;19;20020;-67